Peleus — V2FV2 — position and weather

sailwx.info

Track history (hours):
 
Tides and Currents Weather Stations Pressure Air Temp Water Temp Dewpoint Dewpoint Depression Visibility Wind Speed Wind Dir Waves Ship Positions

Peleus

Last reported at 2015-Jul-02 08:32 UTC. Time now 2015-Jul-02 12:36 UTC.
Position N 38°12' W 009°58'.

Length 88 m; draft 5.3 m.

Type: Cargo ship. MMSI: 305810000.

Date/timePositionNaut miles runAvg speedWind from/ knotsBaromVisibWave heightAir tempDewpointWater temp
2015-Jul-02 08:32N 38°12' W 009°58'8 8.3
2015-Jul-02 07:33N 38°20' W 010°01'9 9.3
2015-Jul-02 06:33N 38°29' W 010°03'8 8.2
2015-Jul-02 05:33N 38°37' W 010°05'9 8.4
2015-Jul-02 04:31N 38°45' W 010°07'  
2015-Jun-27 14:30N 43°36' W 005°58'5 5.4
2015-Jun-27 13:34N 43°38' W 006°05'168 7.0
2015-Jun-26 13:33N 42°46' W 009°45'10 8.7
2015-Jun-26 12:22N 42°36' W 009°41'7 8.5
2015-Jun-26 11:32N 42°29' W 009°39'73 9.0
2015-Jun-26 03:23N 41°18' W 009°17'7 8.5
2015-Jun-26 02:33N 41°11' W 009°15'10 8.6
2015-Jun-26 01:20N 41°01' W 009°12'15 8.5
2015-Jun-25 23:33N 40°46' W 009°08'9 8.5
2015-Jun-25 22:30N 40°37' W 009°05'8 8.5
2015-Jun-25 21:32N 40°29' W 009°03'10 8.3
2015-Jun-25 20:20N 40°19' W 009°00'7 8.4
2015-Jun-25 19:33N 40°13' W 008°58'18 0.6
2015-Jun-24 15:30N 40°30' W 009°05'472 9.7
2015-Jun-22 14:33N 48°09' W 006°27'  
Track history (hours):
 
Tides and Currents Weather Stations Pressure Air Temp Water Temp Dewpoint Dewpoint Depression Visibility Wind Speed Wind Dir Waves Ship Positions

Peleus

Last reported at 2015-Jul-02 08:32 UTC. Time now 2015-Jul-02 12:36 UTC.
Position N 38°12' W 009°58'.

Length 88 m; draft 5.3 m.

Type: Cargo ship. MMSI: 305810000.

Date/timePositionNaut miles runAvg speedWind from/ knotsBaromVisibWave heightAir tempDewpointWater temp
2015-Jul-02 08:32N 38°12' W 009°58'8 8.3
2015-Jul-02 07:33N 38°20' W 010°01'9 9.3
2015-Jul-02 06:33N 38°29' W 010°03'8 8.2
2015-Jul-02 05:33N 38°37' W 010°05'9 8.4
2015-Jul-02 04:31N 38°45' W 010°07'  
2015-Jun-27 14:30N 43°36' W 005°58'5 5.4
2015-Jun-27 13:34N 43°38' W 006°05'168 7.0
2015-Jun-26 13:33N 42°46' W 009°45'10 8.7
2015-Jun-26 12:22N 42°36' W 009°41'7 8.5
2015-Jun-26 11:32N 42°29' W 009°39'73 9.0
2015-Jun-26 03:23N 41°18' W 009°17'7 8.5
2015-Jun-26 02:33N 41°11' W 009°15'10 8.6
2015-Jun-26 01:20N 41°01' W 009°12'15 8.5
2015-Jun-25 23:33N 40°46' W 009°08'9 8.5
2015-Jun-25 22:30N 40°37' W 009°05'8 8.5
2015-Jun-25 21:32N 40°29' W 009°03'10 8.3
2015-Jun-25 20:20N 40°19' W 009°00'7 8.4
2015-Jun-25 19:33N 40°13' W 008°58'18 0.6
2015-Jun-24 15:30N 40°30' W 009°05'472 9.7
2015-Jun-22 14:33N 48°09' W 006°27'  

Dump ship's entire track history